Time;durP1;ratioP1;P1;durP2;ratioP2;P2;SDS_P1;SDS_P2;PMS_P1;PMS_P2;Temp;Humidity;BMP_temperature;BMP_pressure;BME280_temperature;BME280_humidity;BME280_pressure;Samples;Min_cycle;Max_cycle;Signal;HPM_P1;HPM_P2
2023/12/04 00:01:55;;;;;;;13.45;5.65;;;;;;;;;;5168220;28;20042;-64
2023/12/04 00:04:26;;;;;;;9.48;6.07;;;;;;;;;;5168985;28;20045;-63
2023/12/04 00:06:57;;;;;;;11.65;5.80;;;;;;;;;;5168543;28;20058;-62
2023/12/04 00:09:28;;;;;;;8.98;6.10;;;;;;;;;;5163666;28;20483;-64
2023/12/04 00:11:59;;;;;;;8.85;5.75;;;;;;;;;;5151843;28;20534;-65
2023/12/04 00:14:30;;;;;;;10.18;5.45;;;;;;;;;;5168980;28;20033;-65
2023/12/04 00:17:01;;;;;;;11.65;5.75;;;;;;;;;;5167856;28;20038;-63
2023/12/04 00:19:33;;;;;;;7.47;5.10;;;;;;;;;;5168315;28;20033;-63
2023/12/04 00:22:04;;;;;;;9.93;5.85;;;;;;;;;;5167936;28;20424;-63
2023/12/04 00:24:35;;;;;;;10.43;5.93;;;;;;;;;;5167507;28;20042;-62
2023/12/04 00:27:06;;;;;;;9.60;5.32;;;;;;;;;;5164174;28;20042;-63
2023/12/04 00:29:37;;;;;;;8.80;6.03;;;;;;;;;;5180028;28;20045;-63
2023/12/04 00:32:08;;;;;;;11.40;6.88;;;;;;;;;;5167017;28;20041;-60
2023/12/04 00:34:39;;;;;;;11.23;6.53;;;;;;;;;;5166969;28;20033;-65
2023/12/04 00:37:10;;;;;;;10.25;6.30;;;;;;;;;;5167440;28;20065;-63
2023/12/04 00:39:41;;;;;;;10.05;6.10;;;;;;;;;;5167750;28;20084;-62
2023/12/04 00:42:12;;;;;;;9.88;6.43;;;;;;;;;;5167141;28;20033;-62
2023/12/04 00:44:44;;;;;;;10.73;6.43;;;;;;;;;;5167475;28;20037;-64
2023/12/04 00:47:15;;;;;;;11.15;6.63;;;;;;;;;;5167480;28;20396;-63
2023/12/04 00:49:46;;;;;;;12.65;6.70;;;;;;;;;;5167029;28;20066;-65
2023/12/04 00:52:17;;;;;;;13.15;7.20;;;;;;;;;;5166928;28;20440;-60
2023/12/04 00:54:48;;;;;;;12.93;7.30;;;;;;;;;;5161629;28;20500;-61
2023/12/04 00:57:20;;;;;;;10.85;6.47;;;;;;;;;;5167086;28;20045;-60
2023/12/04 00:59:51;;;;;;;12.40;7.13;;;;;;;;;;5167096;28;20131;-60
2023/12/04 01:02:22;;;;;;;10.98;6.85;;;;;;;;;;5166932;28;20766;-60
2023/12/04 01:04:53;;;;;;;11.70;6.97;;;;;;;;;;5167172;28;20057;-59
2023/12/04 01:07:24;;;;;;;9.75;6.88;;;;;;;;;;5167262;28;20042;-63
2023/12/04 01:09:55;;;;;;;12.82;7.10;;;;;;;;;;5166617;28;20049;-64
2023/12/04 01:12:26;;;;;;;10.80;6.53;;;;;;;;;;5151155;28;20516;-65
2023/12/04 01:14:57;;;;;;;10.02;6.05;;;;;;;;;;5167589;28;20490;-64
2023/12/04 01:17:28;;;;;;;11.48;6.18;;;;;;;;;;5167207;28;20038;-57
2023/12/04 01:19:59;;;;;;;9.00;5.88;;;;;;;;;;5167668;28;20054;-60
2023/12/04 01:22:31;;;;;;;8.50;6.20;;;;;;;;;;5168294;28;20128;-62
2023/12/04 01:25:03;;;;;;;11.55;6.38;;;;;;;;;;5148062;28;20173;-60
2023/12/04 01:27:35;;;;;;;11.73;6.13;;;;;;;;;;5167359;28;20100;-57
2023/12/04 01:30:08;;;;;;;;;;;;;;;;;;5167299;28;20054;-56
2023/12/04 01:32:39;;;;;;;12.25;5.82;;;;;;;;;;5176796;28;20367;-57
2023/12/04 01:35:10;;;;;;;12.57;6.18;;;;;;;;;;5152390;28;20176;-57
2023/12/04 01:37:42;;;;;;;11.27;6.55;;;;;;;;;;5167398;28;20506;-56
2023/12/04 01:40:13;;;;;;;10.27;5.97;;;;;;;;;;5166290;28;20041;-61
2023/12/04 01:42:44;;;;;;;13.48;7.03;;;;;;;;;;5165971;28;20326;-57
2023/12/04 01:45:16;;;;;;;11.73;6.95;;;;;;;;;;5166981;28;20038;-57
2023/12/04 01:47:47;;;;;;;9.40;5.72;;;;;;;;;;5164746;28;20049;-57
2023/12/04 01:50:18;;;;;;;8.60;5.75;;;;;;;;;;5162482;28;20048;-57
2023/12/04 01:52:49;;;;;;;10.07;6.32;;;;;;;;;;5174694;28;20100;-56
2023/12/04 01:55:21;;;;;;;11.93;6.55;;;;;;;;;;5152440;28;20037;-58
2023/12/04 01:57:53;;;;;;;10.68;6.05;;;;;;;;;;5165437;28;20038;-57
2023/12/04 02:00:24;;;;;;;8.05;5.20;;;;;;;;;;5166495;28;20219;-59
2023/12/04 02:02:55;;;;;;;9.77;5.55;;;;;;;;;;5166068;28;20048;-57
2023/12/04 02:05:30;;;;;;;8.40;5.40;;;;;;;;;;5170769;28;20368;-57
2023/12/04 02:08:01;;;;;;;6.43;4.05;;;;;;;;;;5154498;28;20129;-57
2023/12/04 02:10:32;;;;;;;6.68;3.58;;;;;;;;;;5173302;28;20052;-57
2023/12/04 02:13:04;;;;;;;6.40;4.22;;;;;;;;;;5165743;28;20156;-59
2023/12/04 02:15:35;;;;;;;8.67;3.87;;;;;;;;;;5166094;28;20042;-60
2023/12/04 02:18:06;;;;;;;10.02;4.40;;;;;;;;;;5166163;28;20045;-60
2023/12/04 02:20:37;;;;;;;5.93;3.25;;;;;;;;;;5165940;28;20385;-60
2023/12/04 02:23:08;;;;;;;7.57;3.97;;;;;;;;;;5165751;28;20045;-59
2023/12/04 02:25:39;;;;;;;7.82;3.45;;;;;;;;;;5165964;28;20046;-57
2023/12/04 02:28:12;;;;;;;7.70;3.90;;;;;;;;;;5166230;28;20041;-57
2023/12/04 02:30:44;;;;;;;7.90;3.50;;;;;;;;;;5165254;28;20042;-57
2023/12/04 02:33:18;;;;;;;7.38;3.80;;;;;;;;;;5165964;28;20445;-58
2023/12/04 02:35:50;;;;;;;5.35;3.63;;;;;;;;;;5164644;28;20365;-56
2023/12/04 02:38:22;;;;;;;7.10;3.70;;;;;;;;;;5165629;28;20037;-58
2023/12/04 02:40:53;;;;;;;8.65;3.35;;;;;;;;;;5149557;28;20056;-57
2023/12/04 02:43:24;;;;;;;5.90;3.33;;;;;;;;;;5166248;28;20408;-57
2023/12/04 02:45:55;;;;;;;6.35;3.13;;;;;;;;;;5162940;28;20128;-59
2023/12/04 02:48:26;;;;;;;4.63;3.00;;;;;;;;;;5165407;28;20108;-58
2023/12/04 02:50:57;;;;;;;7.15;3.67;;;;;;;;;;5181951;28;20050;-63
2023/12/04 02:53:28;;;;;;;5.90;3.40;;;;;;;;;;5164305;28;20042;-58
2023/12/04 02:55:59;;;;;;;5.95;3.28;;;;;;;;;;5164422;28;20041;-59
2023/12/04 02:58:33;;;;;;;9.65;3.20;;;;;;;;;;5162349;28;20034;-59
2023/12/04 03:01:05;;;;;;;6.75;3.20;;;;;;;;;;5165035;28;20120;-59
2023/12/04 03:03:36;;;;;;;5.07;3.10;;;;;;;;;;5165320;28;20046;-59
2023/12/04 03:06:07;;;;;;;5.40;3.03;;;;;;;;;;5162617;28;20404;-59
2023/12/04 03:08:38;;;;;;;5.13;3.13;;;;;;;;;;5165376;28;20046;-59
2023/12/04 03:11:09;;;;;;;7.60;3.42;;;;;;;;;;5165265;28;20501;-59
2023/12/04 03:13:41;;;;;;;5.10;3.42;;;;;;;;;;5164971;28;20451;-59
2023/12/04 03:16:18;;;;;;;5.93;3.45;;;;;;;;;;5174731;28;20045;-59
2023/12/04 03:18:49;;;;;;;5.22;3.50;;;;;;;;;;5181723;28;20137;-59
2023/12/04 03:21:20;;;;;;;5.13;3.53;;;;;;;;;;5172340;28;20120;-59
2023/12/04 03:23:52;;;;;;;8.35;4.00;;;;;;;;;;5165198;28;20045;-59
2023/12/04 03:26:23;;;;;;;4.80;3.40;;;;;;;;;;5165311;28;20046;-59
2023/12/04 03:28:54;;;;;;;7.18;3.92;;;;;;;;;;5165654;28;20476;-59
2023/12/04 03:31:25;;;;;;;7.80;4.40;;;;;;;;;;5165356;28;20267;-60
2023/12/04 03:33:56;;;;;;;6.82;3.92;;;;;;;;;;5165161;28;20084;-59
2023/12/04 03:36:27;;;;;;;7.47;3.50;;;;;;;;;;5165192;28;20515;-59
2023/12/04 03:38:59;;;;;;;7.10;2.92;;;;;;;;;;5165207;28;20065;-59
2023/12/04 03:41:30;;;;;;;6.75;3.72;;;;;;;;;;5167706;28;20361;-59
2023/12/04 03:44:01;;;;;;;4.05;2.90;;;;;;;;;;5165231;28;20073;-59
2023/12/04 03:46:32;;;;;;;5.38;3.17;;;;;;;;;;5164802;28;20181;-60
2023/12/04 03:49:03;;;;;;;4.88;2.83;;;;;;;;;;5165514;28;20484;-59
2023/12/04 03:51:35;;;;;;;5.40;3.03;;;;;;;;;;5166040;28;20042;-59
2023/12/04 03:54:06;;;;;;;4.50;3.13;;;;;;;;;;5148975;28;20084;-59
2023/12/04 03:56:37;;;;;;;5.43;3.05;;;;;;;;;;5169361;28;20034;-64
2023/12/04 03:59:10;;;;;;;5.45;3.05;;;;;;;;;;5169037;28;20088;-64
2023/12/04 04:01:41;;;;;;;5.43;3.45;;;;;;;;;;5164528;28;20044;-56
2023/12/04 04:04:12;;;;;;;5.13;3.17;;;;;;;;;;5166134;28;20033;-59
2023/12/04 04:06:44;;;;;;;5.47;3.42;;;;;;;;;;5168817;28;20120;-56
2023/12/04 04:09:15;;;;;;;5.03;2.83;;;;;;;;;;5177562;28;20139;-57
2023/12/04 04:11:47;;;;;;;5.15;2.75;;;;;;;;;;5168185;28;20493;-56
2023/12/04 04:14:18;;;;;;;5.13;2.85;;;;;;;;;;5168504;28;20049;-57
2023/12/04 04:16:49;;;;;;;5.25;3.22;;;;;;;;;;5168105;28;20037;-57
2023/12/04 04:19:20;;;;;;;5.38;2.72;;;;;;;;;;5168813;28;20125;-56
2023/12/04 04:21:52;;;;;;;3.40;2.30;;;;;;;;;;5168402;28;20476;-57
2023/12/04 04:24:23;;;;;;;4.27;2.97;;;;;;;;;;5170449;28;20064;-57
2023/12/04 04:26:54;;;;;;;7.88;2.95;;;;;;;;;;5168046;28;20050;-58
2023/12/04 04:29:25;;;;;;;6.22;2.95;;;;;;;;;;5168590;28;20050;-58
2023/12/04 04:31:56;;;;;;;4.28;3.20;;;;;;;;;;5167820;28;20119;-58
2023/12/04 04:34:28;;;;;;;6.53;3.50;;;;;;;;;;5167929;28;20052;-58
2023/12/04 04:36:59;;;;;;;5.60;3.45;;;;;;;;;;5164977;28;20451;-57
2023/12/04 04:39:30;;;;;;;6.13;3.33;;;;;;;;;;5167829;28;20092;-59
2023/12/04 04:42:01;;;;;;;6.95;3.50;;;;;;;;;;5167777;28;20347;-59
2023/12/04 04:44:33;;;;;;;4.32;2.90;;;;;;;;;;5164619;28;20045;-60
2023/12/04 04:47:04;;;;;;;4.95;3.25;;;;;;;;;;5167965;28;20127;-60
2023/12/04 04:49:35;;;;;;;6.10;3.50;;;;;;;;;;5167915;28;20045;-60
2023/12/04 04:52:06;;;;;;;3.95;2.60;;;;;;;;;;5168597;28;20058;-60
2023/12/04 04:54:37;;;;;;;5.70;2.40;;;;;;;;;;5151306;28;20053;-59
2023/12/04 04:57:08;;;;;;;5.68;2.85;;;;;;;;;;5166517;28;20124;-59
2023/12/04 04:59:39;;;;;;;5.47;2.80;;;;;;;;;;5168166;28;20041;-60
2023/12/04 05:02:11;;;;;;;4.95;3.00;;;;;;;;;;5168360;28;20369;-60
2023/12/04 05:04:42;;;;;;;8.00;3.28;;;;;;;;;;5168951;28;20037;-61
2023/12/04 05:07:13;;;;;;;5.10;3.00;;;;;;;;;;5171258;28;20466;-60
2023/12/04 05:09:44;;;;;;;3.80;2.65;;;;;;;;;;5169360;28;20204;-60
2023/12/04 05:12:15;;;;;;;5.30;3.53;;;;;;;;;;5167242;28;20038;-60
2023/12/04 05:14:46;;;;;;;5.93;3.35;;;;;;;;;;5168464;28;20406;-60
2023/12/04 05:17:17;;;;;;;4.13;2.75;;;;;;;;;;5199025;28;20071;-67
2023/12/04 05:19:48;;;;;;;6.32;3.60;;;;;;;;;;5157696;28;20063;-65
2023/12/04 05:22:20;;;;;;;5.72;3.20;;;;;;;;;;5172951;28;20104;-60
2023/12/04 05:24:51;;;;;;;6.25;3.50;;;;;;;;;;5166912;28;20045;-59
2023/12/04 05:27:22;;;;;;;5.53;3.35;;;;;;;;;;5173994;28;20045;-60
2023/12/04 05:29:53;;;;;;;5.85;3.00;;;;;;;;;;5170899;28;20536;-59
2023/12/04 05:32:24;;;;;;;4.88;3.15;;;;;;;;;;5166859;28;20517;-59
2023/12/04 05:34:55;;;;;;;5.47;3.20;;;;;;;;;;5167509;28;20037;-59
2023/12/04 05:37:26;;;;;;;6.22;3.03;;;;;;;;;;5166902;28;20046;-59
2023/12/04 05:39:57;;;;;;;4.97;3.30;;;;;;;;;;5166701;28;20042;-59
2023/12/04 05:42:29;;;;;;;5.53;3.40;;;;;;;;;;5167759;28;20050;-58
2023/12/04 05:45:00;;;;;;;3.63;2.72;;;;;;;;;;5159198;28;20053;-60
2023/12/04 05:47:31;;;;;;;5.15;3.28;;;;;;;;;;5155506;28;20050;-59
2023/12/04 05:50:02;;;;;;;4.05;2.70;;;;;;;;;;5167240;28;20037;-60
2023/12/04 05:52:33;;;;;;;6.95;3.45;;;;;;;;;;5178611;28;20054;-61
2023/12/04 05:55:05;;;;;;;8.02;3.53;;;;;;;;;;5148624;28;20034;-58
2023/12/04 05:57:36;;;;;;;7.43;3.70;;;;;;;;;;5178736;28;20117;-58
2023/12/04 06:00:12;;;;;;;8.07;3.17;;;;;;;;;;5166547;28;20057;-61
2023/12/04 06:02:44;;;;;;;5.90;3.35;;;;;;;;;;5166229;28;20099;-60
2023/12/04 06:05:15;;;;;;;4.53;2.55;;;;;;;;;;5166569;28;20037;-60
2023/12/04 06:07:46;;;;;;;6.32;2.80;;;;;;;;;;5166496;28;20073;-60
2023/12/04 06:10:17;;;;;;;4.75;2.75;;;;;;;;;;5166305;28;20042;-60
2023/12/04 06:12:48;;;;;;;5.35;2.42;;;;;;;;;;5166063;28;20078;-66
2023/12/04 06:15:19;;;;;;;5.50;3.15;;;;;;;;;;5166096;28;20108;-67
2023/12/04 06:17:50;;;;;;;5.55;3.22;;;;;;;;;;5166426;28;20045;-57
2023/12/04 06:20:21;;;;;;;6.47;3.65;;;;;;;;;;5166263;28;20368;-59
2023/12/04 06:22:53;;;;;;;5.03;3.25;;;;;;;;;;5165823;28;20045;-64
2023/12/04 06:25:24;;;;;;;6.65;3.50;;;;;;;;;;5166424;28;20472;-66
2023/12/04 06:27:55;;;;;;;8.20;3.10;;;;;;;;;;5165707;28;20049;-66
2023/12/04 06:30:27;;;;;;;8.20;3.88;;;;;;;;;;5165950;28;20337;-67
2023/12/04 06:32:58;;;;;;;7.50;3.47;;;;;;;;;;5165665;28;20080;-66
2023/12/04 06:35:29;;;;;;;7.90;4.13;;;;;;;;;;5165893;28;20041;-67
2023/12/04 06:38:04;;;;;;;6.68;4.15;;;;;;;;;;5164220;28;20077;-66
2023/12/04 06:40:35;;;;;;;6.97;3.80;;;;;;;;;;5166002;28;20038;-64
2023/12/04 06:43:07;;;;;;;8.52;4.65;;;;;;;;;;5165879;28;20034;-67
2023/12/04 06:45:38;;;;;;;10.23;4.38;;;;;;;;;;5165811;28;20037;-67
2023/12/04 06:48:11;;;;;;;5.53;3.75;;;;;;;;;;5165672;28;20091;-67
2023/12/04 06:50:42;;;;;;;9.25;4.90;;;;;;;;;;5165980;28;20209;-66
2023/12/04 06:53:13;;;;;;;9.85;5.45;;;;;;;;;;5165667;28;20576;-59
2023/12/04 06:55:44;;;;;;;8.93;4.60;;;;;;;;;;5164501;28;20045;-59
2023/12/04 06:58:15;;;;;;;11.77;4.97;;;;;;;;;;5165374;28;20045;-60
2023/12/04 07:00:48;;;;;;;9.35;5.00;;;;;;;;;;5177572;28;20042;-59
2023/12/04 07:03:19;;;;;;;10.68;5.00;;;;;;;;;;5165500;28;20042;-57
2023/12/04 07:05:50;;;;;;;12.05;4.60;;;;;;;;;;5165166;28;20065;-57
2023/12/04 07:08:21;;;;;;;8.60;4.63;;;;;;;;;;5172765;28;20044;-60
2023/12/04 07:10:53;;;;;;;11.10;5.20;;;;;;;;;;5167038;28;20053;-60
2023/12/04 07:13:24;;;;;;;9.95;4.95;;;;;;;;;;5171497;28;20046;-60
2023/12/04 07:15:55;;;;;;;9.95;4.85;;;;;;;;;;5164738;28;20037;-60
2023/12/04 07:18:26;;;;;;;8.27;4.38;;;;;;;;;;5165563;28;20049;-60
2023/12/04 07:20:57;;;;;;;8.00;5.30;;;;;;;;;;5165521;28;20049;-60
2023/12/04 07:23:28;;;;;;;7.85;4.80;;;;;;;;;;5165196;28;20046;-60
2023/12/04 07:25:59;;;;;;;8.02;4.88;;;;;;;;;;5165432;28;20076;-60
2023/12/04 07:28:30;;;;;;;8.63;4.45;;;;;;;;;;5165215;28;20499;-60
2023/12/04 07:31:02;;;;;;;7.22;4.55;;;;;;;;;;5165401;28;20041;-60
2023/12/04 07:33:33;;;;;;;6.05;4.22;;;;;;;;;;5165078;28;20476;-61
2023/12/04 07:36:04;;;;;;;11.13;4.72;;;;;;;;;;5166960;28;20125;-62
2023/12/04 07:38:35;;;;;;;7.30;4.30;;;;;;;;;;5167949;28;20034;-62
2023/12/04 07:41:06;;;;;;;9.10;4.55;;;;;;;;;;5169505;28;20365;-62
2023/12/04 07:43:38;;;;;;;7.13;4.47;;;;;;;;;;5169369;28;20569;-62
2023/12/04 07:46:10;;;;;;;8.33;4.87;;;;;;;;;;5169200;28;20045;-59
2023/12/04 07:48:43;;;;;;;6.35;3.47;;;;;;;;;;5168775;28;20033;-59
2023/12/04 07:51:14;;;;;;;6.22;3.75;;;;;;;;;;5176002;28;20397;-67
2023/12/04 07:53:45;;;;;;;6.95;3.80;;;;;;;;;;5170115;28;20132;-64
2023/12/04 07:56:17;;;;;;;6.43;4.35;;;;;;;;;;5169875;28;20069;-65
2023/12/04 07:58:48;;;;;;;9.20;4.43;;;;;;;;;;5174910;28;20084;-63
2023/12/04 08:01:19;;;;;;;7.30;3.80;;;;;;;;;;5168873;28;20467;-63
2023/12/04 08:03:50;;;;;;;9.63;4.90;;;;;;;;;;5168713;28;20041;-62
2023/12/04 08:06:21;;;;;;;6.38;4.57;;;;;;;;;;5169039;28;20464;-63
2023/12/04 08:08:52;;;;;;;7.00;4.63;;;;;;;;;;5167778;28;20065;-64
2023/12/04 08:11:23;;;;;;;8.00;5.53;;;;;;;;;;5168707;28;20060;-62
2023/12/04 08:13:55;;;;;;;10.68;5.45;;;;;;;;;;5174101;28;20511;-62
2023/12/04 08:16:28;;;;;;;9.82;4.85;;;;;;;;;;5168627;28;20030;-63
2023/12/04 08:18:59;;;;;;;9.73;5.40;;;;;;;;;;5168243;28;20056;-62
2023/12/04 08:21:32;;;;;;;9.90;5.60;;;;;;;;;;5161658;28;20053;-61
2023/12/04 08:24:03;;;;;;;8.57;5.60;;;;;;;;;;5168705;28;20104;-62
2023/12/04 08:26:34;;;;;;;11.00;6.05;;;;;;;;;;5168743;28;20037;-61
2023/12/04 08:29:05;;;;;;;10.85;6.32;;;;;;;;;;5162780;28;20053;-61
2023/12/04 08:31:36;;;;;;;10.27;6.57;;;;;;;;;;5167857;28;20084;-61
2023/12/04 08:34:07;;;;;;;8.82;6.50;;;;;;;;;;5167586;28;20037;-61
2023/12/04 08:36:38;;;;;;;9.60;6.80;;;;;;;;;;5167817;28;20157;-61
2023/12/04 08:39:09;;;;;;;12.63;7.50;;;;;;;;;;5167185;28;20412;-62
2023/12/04 08:41:40;;;;;;;13.00;8.07;;;;;;;;;;5161261;28;20034;-62
2023/12/04 08:44:12;;;;;;;14.88;8.20;;;;;;;;;;5183505;28;20072;-62
2023/12/04 08:46:44;;;;;;;11.43;7.57;;;;;;;;;;5168082;28;20056;-62
2023/12/04 08:49:15;;;;;;;;;;;;;;;;;;5167565;28;20040;-58
2023/12/04 08:51:46;;;;;;;16.15;8.23;;;;;;;;;;5176158;28;20336;-59
2023/12/04 08:54:18;;;;;;;14.18;8.30;;;;;;;;;;5166841;28;20120;-60
2023/12/04 08:56:49;;;;;;;10.68;7.90;;;;;;;;;;5166328;28;20100;-60
2023/12/04 08:59:20;;;;;;;16.58;8.52;;;;;;;;;;5166936;28;20030;-59
2023/12/04 09:01:51;;;;;;;14.40;9.80;;;;;;;;;;5167114;28;20045;-60
2023/12/04 09:04:23;;;;;;;13.25;7.72;;;;;;;;;;5166958;28;20139;-59
2023/12/04 09:06:54;;;;;;;11.73;7.72;;;;;;;;;;5167065;28;20044;-59
2023/12/04 09:09:25;;;;;;;13.07;8.60;;;;;;;;;;5163305;28;20513;-59
2023/12/04 09:11:56;;;;;;;11.93;7.90;;;;;;;;;;5167358;28;20045;-60
2023/12/04 09:14:28;;;;;;;15.30;8.45;;;;;;;;;;5167447;28;20050;-60
2023/12/04 09:16:59;;;;;;;12.23;7.82;;;;;;;;;;5167790;28;20495;-60
2023/12/04 09:19:30;;;;;;;13.23;8.10;;;;;;;;;;5170582;28;20038;-60
2023/12/04 09:22:01;;;;;;;12.52;8.32;;;;;;;;;;5167254;28;20037;-59
2023/12/04 09:24:33;;;;;;;11.90;6.45;;;;;;;;;;5166951;28;20042;-62
2023/12/04 09:27:06;;;;;;;8.20;4.72;;;;;;;;;;5167354;28;20483;-60
2023/12/04 09:29:37;;;;;;;6.53;4.05;;;;;;;;;;5166815;28;20045;-60
2023/12/04 09:32:09;;;;;;;3.67;2.63;;;;;;;;;;5166823;28;20046;-59
2023/12/04 09:34:40;;;;;;;5.85;2.60;;;;;;;;;;5166498;28;20037;-62
2023/12/04 09:37:12;;;;;;;4.20;2.17;;;;;;;;;;5166849;28;20088;-60
2023/12/04 09:39:43;;;;;;;2.28;1.60;;;;;;;;;;5166534;28;20038;-60
2023/12/04 09:42:14;;;;;;;2.47;1.30;;;;;;;;;;5166792;28;20046;-60
2023/12/04 09:44:49;;;;;;;3.43;1.43;;;;;;;;;;5166959;28;20488;-61
2023/12/04 09:47:21;;;;;;;2.15;1.10;;;;;;;;;;5166958;28;20622;-62
2023/12/04 09:49:53;;;;;;;1.60;1.10;;;;;;;;;;5166643;28;20033;-57
2023/12/04 09:52:24;;;;;;;2.40;1.38;;;;;;;;;;5166447;28;20489;-56
2023/12/04 09:54:55;;;;;;;3.15;1.20;;;;;;;;;;5166522;28;20050;-57
2023/12/04 09:57:26;;;;;;;2.08;1.23;;;;;;;;;;5176449;28;20396;-58
2023/12/04 09:59:58;;;;;;;2.08;1.38;;;;;;;;;;5166653;28;20090;-62
2023/12/04 10:02:30;;;;;;;2.40;1.10;;;;;;;;;;5166378;28;20052;-61
2023/12/04 10:05:01;;;;;;;3.77;1.03;;;;;;;;;;5166509;28;20099;-61
2023/12/04 10:07:36;;;;;;;1.92;1.30;;;;;;;;;;5166406;28;20067;-61
2023/12/04 10:10:07;;;;;;;1.70;0.88;;;;;;;;;;5150083;28;20042;-62
2023/12/04 10:12:39;;;;;;;2.45;1.55;;;;;;;;;;5166894;28;20092;-62
2023/12/04 10:15:11;;;;;;;1.13;0.90;;;;;;;;;;5167178;28;20361;-61
2023/12/04 10:17:43;;;;;;;4.85;1.00;;;;;;;;;;5157592;28;20038;-58
2023/12/04 10:20:19;;;;;;;2.00;0.98;;;;;;;;;;5178942;28;20345;-57
2023/12/04 10:23:04;;;;;;;1.88;0.80;;;;;;;;;;5165949;28;20049;-58
2023/12/04 10:25:36;;;;;;;1.60;1.00;;;;;;;;;;5178535;28;20057;-57
2023/12/04 10:28:09;;;;;;;2.55;0.70;;;;;;;;;;5160853;28;20104;-58
2023/12/04 10:30:40;;;;;;;1.98;0.93;;;;;;;;;;5166239;28;20392;-57
2023/12/04 10:33:11;;;;;;;1.98;0.85;;;;;;;;;;5165865;28;20493;-57
2023/12/04 10:35:43;;;;;;;1.20;0.90;;;;;;;;;;5166064;28;20431;-57
2023/12/04 10:38:14;;;;;;;1.17;0.75;;;;;;;;;;5165070;28;20104;-58
2023/12/04 10:40:45;;;;;;;2.63;0.95;;;;;;;;;;5165994;28;20481;-57
2023/12/04 10:43:17;;;;;;;1.75;1.13;;;;;;;;;;5165719;28;20049;-57
2023/12/04 10:45:48;;;;;;;;;;;;;;;;;;5166097;28;20038;-57
2023/12/04 10:48:20;;;;;;;1.90;1.10;;;;;;;;;;5165298;28;20442;-56
2023/12/04 10:50:53;;;;;;;2.58;1.10;;;;;;;;;;5165264;28;20073;-56
2023/12/04 10:53:24;;;;;;;1.42;1.10;;;;;;;;;;5165480;28;20077;-58
2023/12/04 10:55:56;;;;;;;1.95;1.35;;;;;;;;;;5162145;28;20468;-57
2023/12/04 10:58:28;;;;;;;2.25;1.30;;;;;;;;;;5149332;28;20042;-57
2023/12/04 11:01:01;;;;;;;3.42;1.23;;;;;;;;;;5161082;28;20042;-56
2023/12/04 11:03:35;;;;;;;1.95;1.17;;;;;;;;;;5165494;28;20054;-56
2023/12/04 11:06:09;;;;;;;2.10;1.20;;;;;;;;;;5165383;28;20077;-56
2023/12/04 11:08:42;;;;;;;2.63;1.20;;;;;;;;;;5165138;28;20112;-56
2023/12/04 11:11:16;;;;;;;2.60;1.25;;;;;;;;;;5165588;28;20045;-56
2023/12/04 11:13:49;;;;;;;2.03;1.10;;;;;;;;;;5165675;28;20056;-56
2023/12/04 11:16:42;;;;;;;2.83;1.20;;;;;;;;;;5169650;28;20506;-56
2023/12/04 11:19:23;;;;;;;2.95;1.20;;;;;;;;;;5170146;28;20506;-57
2023/12/04 11:21:54;;;;;;;1.85;1.35;;;;;;;;;;5169269;28;20348;-56
2023/12/04 11:24:25;;;;;;;1.98;1.40;;;;;;;;;;5176936;28;20036;-56
2023/12/04 11:26:56;;;;;;;2.53;1.30;;;;;;;;;;5169438;28;20038;-56
2023/12/04 11:29:28;;;;;;;4.45;1.73;;;;;;;;;;5169457;28;20034;-56
2023/12/04 11:31:59;;;;;;;1.47;1.30;;;;;;;;;;5169177;28;20441;-56
2023/12/04 11:34:32;;;;;;;3.10;1.50;;;;;;;;;;5169313;28;20038;-58
2023/12/04 11:37:03;;;;;;;2.45;1.35;;;;;;;;;;5169004;28;20041;-58
2023/12/04 11:39:36;;;;;;;2.57;1.40;;;;;;;;;;5169534;28;20476;-56
2023/12/04 11:42:07;;;;;;;3.35;1.45;;;;;;;;;;5168948;28;20354;-56
2023/12/04 11:44:42;;;;;;;2.78;1.30;;;;;;;;;;5168962;28;20050;-56
2023/12/04 11:47:13;;;;;;;1.40;0.88;;;;;;;;;;5168739;28;20042;-56
2023/12/04 11:49:44;;;;;;;1.38;0.80;;;;;;;;;;5173588;28;20084;-56
2023/12/04 11:52:15;;;;;;;2.10;0.90;;;;;;;;;;5168888;28;20053;-56
2023/12/04 11:54:57;;;;;;;12.95;4.65;;;;;;;;;;5168732;28;20053;-56
2023/12/04 11:57:32;;;;;;;3.30;1.35;;;;;;;;;;5175480;28;20065;-56
2023/12/04 12:00:11;;;;;;;3.47;0.70;;;;;;;;;;5186361;28;20119;-56
2023/12/04 12:02:47;;;;;;;0.50;0.30;;;;;;;;;;5169488;28;20084;-57
2023/12/04 12:05:18;;;;;;;1.30;0.60;;;;;;;;;;5168690;28;20049;-57
2023/12/04 12:07:49;;;;;;;0.63;0.40;;;;;;;;;;5168495;28;20046;-57
2023/12/04 12:10:20;;;;;;;3.22;0.55;;;;;;;;;;5168459;28;20042;-58
2023/12/04 12:12:52;;;;;;;0.98;0.60;;;;;;;;;;5168539;28;20099;-57
2023/12/04 12:15:23;;;;;;;1.55;0.70;;;;;;;;;;5168422;28;20034;-57
2023/12/04 12:17:55;;;;;;;2.17;0.60;;;;;;;;;;5168316;28;20065;-58
2023/12/04 12:20:26;;;;;;;1.38;0.43;;;;;;;;;;5168305;28;20044;-58
2023/12/04 12:22:57;;;;;;;5.00;1.30;;;;;;;;;;5168363;28;20042;-58
2023/12/04 12:25:29;;;;;;;1.85;0.60;;;;;;;;;;5168497;28;20443;-59
2023/12/04 12:28:03;;;;;;;5.10;1.10;;;;;;;;;;5168236;28;20053;-59
2023/12/04 12:30:34;;;;;;;1.75;0.80;;;;;;;;;;5168463;28;20044;-58
2023/12/04 12:33:05;;;;;;;0.73;0.40;;;;;;;;;;5167841;28;20044;-58
2023/12/04 12:35:36;;;;;;;1.13;0.30;;;;;;;;;;5168530;28;20037;-58
2023/12/04 12:38:08;;;;;;;3.10;0.50;;;;;;;;;;5168221;28;20494;-58
2023/12/04 12:40:39;;;;;;;0.93;0.40;;;;;;;;;;5171159;28;20400;-59
2023/12/04 12:43:10;;;;;;;1.50;0.50;;;;;;;;;;5168078;28;20129;-57
2023/12/04 12:45:42;;;;;;;1.52;0.40;;;;;;;;;;5167944;28;20061;-58
2023/12/04 12:48:14;;;;;;;1.58;0.40;;;;;;;;;;5174439;28;20373;-57
2023/12/04 12:50:47;;;;;;;2.63;0.68;;;;;;;;;;5167743;28;20441;-58
2023/12/04 12:53:19;;;;;;;2.10;0.38;;;;;;;;;;5167507;28;20046;-57
2023/12/04 12:55:50;;;;;;;0.98;0.30;;;;;;;;;;5166506;28;20050;-57
2023/12/04 12:58:21;;;;;;;1.25;0.35;;;;;;;;;;5167432;28;20092;-57
2023/12/04 13:00:53;;;;;;;3.90;0.40;;;;;;;;;;5167690;28;20037;-57
2023/12/04 13:03:24;;;;;;;2.37;0.63;;;;;;;;;;5167926;28;20072;-57
2023/12/04 13:05:55;;;;;;;2.23;0.77;;;;;;;;;;5167326;28;20053;-58
2023/12/04 13:08:26;;;;;;;1.00;0.40;;;;;;;;;;5167810;28;20050;-58
2023/12/04 13:10:57;;;;;;;2.53;0.82;;;;;;;;;;5151686;28;20046;-58
2023/12/04 13:13:29;;;;;;;1.55;0.70;;;;;;;;;;5177333;28;20048;-59
2023/12/04 13:16:00;;;;;;;;;;;;;;;;;;5167922;28;20207;-59
2023/12/04 13:18:34;;;;;;;2.03;0.55;;;;;;;;;;5167210;28;20077;-59
2023/12/04 13:21:06;;;;;;;1.23;0.60;;;;;;;;;;5167469;28;20046;-59
2023/12/04 13:23:37;;;;;;;2.55;1.00;;;;;;;;;;5166890;28;20038;-59
2023/12/04 13:26:11;;;;;;;3.15;0.55;;;;;;;;;;5167225;28;20046;-58
2023/12/04 13:28:42;;;;;;;1.75;0.70;;;;;;;;;;5166890;28;20099;-58
2023/12/04 13:31:14;;;;;;;1.13;0.40;;;;;;;;;;5167245;28;20437;-58
2023/12/04 13:33:47;;;;;;;0.63;0.40;;;;;;;;;;5166975;28;20081;-58
2023/12/04 13:36:18;;;;;;;1.10;0.32;;;;;;;;;;5166040;28;20040;-57
2023/12/04 13:38:49;;;;;;;0.52;0.38;;;;;;;;;;5166794;28;20049;-58
2023/12/04 13:44:12;;;;;;;3.30;0.47;;;;;;;;;;5166773;28;20053;-58
2023/12/04 13:46:43;;;;;;;1.42;0.40;;;;;;;;;;5166930;28;20048;-58
2023/12/04 13:49:14;;;;;;;0.60;0.45;;;;;;;;;;5166537;28;20038;-57
2023/12/04 13:51:48;;;;;;;1.37;0.63;;;;;;;;;;5166637;28;20053;-57
2023/12/04 13:54:34;;;;;;;3.03;0.55;;;;;;;;;;5166177;28;20140;-59
2023/12/04 13:57:05;;;;;;;0.50;0.20;;;;;;;;;;5165387;28;20395;-58
2023/12/04 13:59:39;;;;;;;1.33;0.20;;;;;;;;;;5149105;28;20044;-59
2023/12/04 14:02:12;;;;;;;0.55;0.20;;;;;;;;;;5165684;28;20038;-58
2023/12/04 14:04:43;;;;;;;0.47;0.20;;;;;;;;;;5166036;28;20034;-58
2023/12/04 14:07:14;;;;;;;0.52;0.20;;;;;;;;;;5165913;28;20519;-59
2023/12/04 14:09:46;;;;;;;0.40;0.03;;;;;;;;;;5174053;28;20049;-60
2023/12/04 14:12:17;;;;;;;;;;;;;;;;;;5165867;28;20073;-61
2023/12/04 14:14:48;;;;;;;1.30;0.38;;;;;;;;;;5165775;28;20360;-63
2023/12/04 14:17:19;;;;;;;0.63;0.23;;;;;;;;;;5165414;28;20067;-60
2023/12/04 14:19:50;;;;;;;1.45;0.10;;;;;;;;;;5164923;28;20133;-61
2023/12/04 14:22:22;;;;;;;0.47;0.20;;;;;;;;;;5174493;28;20477;-61
2023/12/04 14:24:53;;;;;;;3.03;0.52;;;;;;;;;;5165537;28;20389;-61
2023/12/04 14:27:24;;;;;;;1.83;0.38;;;;;;;;;;5166346;28;20038;-61
2023/12/04 14:29:55;;;;;;;0.88;0.20;;;;;;;;;;5166091;28;20428;-60
2023/12/04 14:32:26;;;;;;;0.30;0.20;;;;;;;;;;5172994;28;20048;-61
2023/12/04 14:34:57;;;;;;;0.40;0.13;;;;;;;;;;5153367;28;20046;-61
2023/12/04 14:37:35;;;;;;;3.15;0.50;;;;;;;;;;5165084;28;20046;-61
2023/12/04 14:40:07;;;;;;;1.75;0.55;;;;;;;;;;5167186;28;20117;-59
2023/12/04 14:42:38;;;;;;;2.10;0.75;;;;;;;;;;5165968;28;20550;-59
2023/12/04 14:45:09;;;;;;;2.13;0.50;;;;;;;;;;5164398;28;20052;-61
2023/12/04 14:47:41;;;;;;;1.38;0.60;;;;;;;;;;5170390;28;20038;-60
2023/12/04 14:50:12;;;;;;;1.05;0.40;;;;;;;;;;5167607;28;20384;-60
2023/12/04 14:52:49;;;;;;;1.92;0.50;;;;;;;;;;5166745;28;20045;-59
2023/12/04 15:10:38;;;;;;;0.73;0.30;;;;;;;;;;5136566;28;20342;-60
2023/12/04 15:13:37;;;;;;;1.00;0.38;;;;;;;;;;5144635;28;20050;-59
2023/12/04 15:21:24;;;;;;;1.30;0.40;;;;;;;;;;5165409;28;20068;-60
2023/12/04 15:23:55;;;;;;;0.75;0.30;;;;;;;;;;5164519;28;20052;-58
2023/12/04 15:26:26;;;;;;;0.80;0.40;;;;;;;;;;5168052;28;20092;-58
2023/12/04 15:28:57;;;;;;;1.75;0.30;;;;;;;;;;5167523;28;20057;-58
2023/12/04 15:31:28;;;;;;;0.90;0.30;;;;;;;;;;5170837;28;20137;-59
2023/12/04 15:33:59;;;;;;;2.08;0.60;;;;;;;;;;5165092;28;20088;-59